Fromveur II — FICH — position and weather

sailwx.info

Track history (hours):
 
Tides and Currents Weather Stations Pressure Air Temp Water Temp Dewpoint Dewpoint Depression Visibility Wind Speed Wind Dir Waves Ship Positions

Fromveur II

Last reported at 2017-Nov-20 00:30 UTC. Time now 2017-Nov-20 02:11 UTC.
Position N 48°23' W 004°29'.

Length 45 m; draft 2.8 m.

Type: Ship. MMSI: 228017700.

Date/timePositionNaut miles runAvg speedWind from/ knotsBaromVisibWave heightAir tempDewpointWater temp
2017-Nov-20 00:30N 48°23' W 004°29'0 0.0
2017-Nov-19 23:55N 48°23' W 004°29'0 0.0
2017-Nov-19 23:30N 48°23' W 004°29'0 0.0
2017-Nov-19 23:00N 48°23' W 004°29'0 0.0
2017-Nov-19 22:28N 48°23' W 004°29'0 0.0
2017-Nov-19 21:56N 48°23' W 004°29'0 0.0
2017-Nov-19 21:23N 48°23' W 004°29'0 0.0
2017-Nov-19 20:57N 48°23' W 004°29'0 0.0
2017-Nov-19 20:30N 48°23' W 004°29'0 0.0
2017-Nov-19 19:54N 48°23' W 004°29'0 0.0
2017-Nov-19 19:30N 48°23' W 004°29'0 0.0
2017-Nov-19 19:00N 48°23' W 004°29'0 0.0
2017-Nov-19 18:29N 48°23' W 004°29'0 0.6
2017-Nov-19 18:00N 48°23' W 004°29'713.1
2017-Nov-19 17:30N 48°20' W 004°38'612.4
2017-Nov-19 17:00N 48°21' W 004°47'3 5.9
2017-Nov-19 16:31N 48°23' W 004°51'4 8.7
2017-Nov-19 16:00N 48°24' W 004°57'610.8
2017-Nov-19 15:29N 48°28' W 005°03'0 0.0
2017-Nov-19 14:59N 48°28' W 005°03'611.7
2017-Nov-19 14:30N 48°24' W 004°57'5 9.4
2017-Nov-19 14:01N 48°23' W 004°51'3 5.5
2017-Nov-19 13:30N 48°22' W 004°47'0 0.0
2017-Nov-19 13:00N 48°22' W 004°47'0 0.0
2017-Nov-19 12:25N 48°22' W 004°47'0 0.0
2017-Nov-19 11:49N 48°22' W 004°47'3 8.3
2017-Nov-19 11:30N 48°23' W 004°50'510.8
2017-Nov-19 11:00N 48°24' W 004°58'510.0
2017-Nov-19 10:28N 48°28' W 005°03'0 0.0
2017-Nov-19 10:00N 48°28' W 005°03'510.2
2017-Nov-19 09:29N 48°24' W 004°58'611.7
2017-Nov-19 09:01N 48°23' W 004°50'2 4.4
2017-Nov-19 08:30N 48°22' W 004°47'4 9.1
2017-Nov-19 08:00N 48°20' W 004°41'715.0
2017-Nov-19 07:30N 48°22' W 004°30'1 2.3
2017-Nov-19 06:57N 48°23' W 004°29'0 0.0
2017-Nov-19 06:30N 48°23' W 004°29'0 0.0
2017-Nov-19 06:00N 48°23' W 004°29'0 0.0
2017-Nov-19 05:28N 48°23' W 004°29'0 0.0
2017-Nov-19 04:58N 48°23' W 004°29'0 0.0
2017-Nov-19 04:28N 48°23' W 004°29'0 0.0
2017-Nov-19 03:59N 48°23' W 004°29'0 0.0
2017-Nov-19 03:29N 48°23' W 004°29'0 0.0
2017-Nov-19 02:57N 48°23' W 004°29'0 0.0
2017-Nov-19 02:28N 48°23' W 004°29'0 0.0
2017-Nov-19 01:58N 48°23' W 004°29'0 0.0
2017-Nov-19 01:29N 48°23' W 004°29'0 0.0
2017-Nov-19 01:00N 48°23' W 004°29'0 0.0
2017-Nov-19 00:29N 48°23' W 004°29'0 0.0
2017-Nov-18 23:59N 48°23' W 004°29'0 0.0
2017-Nov-18 23:30N 48°23' W 004°29'0 0.0
2017-Nov-18 22:58N 48°23' W 004°29'0 0.0
2017-Nov-18 22:30N 48°23' W 004°29'0 0.0
2017-Nov-18 22:00N 48°23' W 004°29'0 0.0
2017-Nov-18 21:26N 48°23' W 004°29'0 0.0
2017-Nov-18 20:55N 48°23' W 004°29'0 0.0
2017-Nov-18 20:23N 48°23' W 004°29'0 0.0
2017-Nov-18 19:58N 48°23' W 004°29'0 0.0
2017-Nov-18 19:30N 48°23' W 004°29'0 0.0
2017-Nov-18 18:57N 48°23' W 004°29'0 0.0
2017-Nov-18 18:30N 48°23' W 004°29'0 0.0
2017-Nov-18 18:00N 48°23' W 004°29'611.4
2017-Nov-18 17:30N 48°20' W 004°37'714.1
2017-Nov-18 17:00N 48°20' W 004°47'4 8.2
2017-Nov-18 16:30N 48°24' W 004°50'5 9.3
2017-Nov-18 15:59N 48°24' W 004°57'611.6
2017-Nov-18 15:30N 48°28' W 005°03'0 0.1
2017-Nov-18 14:50N 48°28' W 005°03'3 9.8
2017-Nov-18 14:30N 48°27' W 004°59'3 6.5
2017-Nov-18 14:00N 48°24' W 004°56'612.5
2017-Nov-18 13:29N 48°22' W 004°47'0 0.0
2017-Nov-18 12:59N 48°22' W 004°47'0 0.0
2017-Nov-18 12:29N 48°22' W 004°47'0 0.0
2017-Nov-18 12:00N 48°22' W 004°47'510.8
2017-Nov-18 11:30N 48°24' W 004°54'4 8.8
2017-Nov-18 11:00N 48°27' W 004°59'3 4.7
2017-Nov-18 10:22N 48°28' W 005°03'2 3.6
2017-Nov-18 09:54N 48°28' W 005°01'4 9.9
2017-Nov-18 09:29N 48°24' W 004°58'611.6
2017-Nov-18 09:00N 48°23' W 004°49'2 4.4
2017-Nov-18 08:30N 48°22' W 004°47'4 8.6
2017-Nov-18 08:01N 48°20' W 004°41'815.1
2017-Nov-18 07:31N 48°22' W 004°30'1 2.4
2017-Nov-18 06:58N 48°23' W 004°29'0 0.0
2017-Nov-18 06:29N 48°23' W 004°29'0 0.0
2017-Nov-18 05:58N 48°23' W 004°29'0 0.0
2017-Nov-18 05:30N 48°23' W 004°29'0 0.0
2017-Nov-18 04:57N 48°23' W 004°29'0 0.0
2017-Nov-18 04:30N 48°23' W 004°29'0 0.0
2017-Nov-18 04:00N 48°23' W 004°29'0 0.0
2017-Nov-18 03:30N 48°23' W 004°29'0 0.0
2017-Nov-18 03:00N 48°23' W 004°29'0 0.0
2017-Nov-18 02:29N 48°23' W 004°29'0 0.0
2017-Nov-18 01:59N 48°23' W 004°29'0 0.0
2017-Nov-18 01:30N 48°23' W 004°29'0 0.0
2017-Nov-18 00:59N 48°23' W 004°29'0 0.0
2017-Nov-18 00:29N 48°23' W 004°29'0 0.0
2017-Nov-18 00:00N 48°23' W 004°29'0 0.0
2017-Nov-17 23:29N 48°23' W 004°29'0 0.0
2017-Nov-17 22:59N 48°23' W 004°29'0 0.0
2017-Nov-17 22:29N 48°23' W 004°29'0 0.0
2017-Nov-17 21:58N 48°23' W 004°29'0 0.0
2017-Nov-17 21:29N 48°23' W 004°29'0 0.0
2017-Nov-17 20:53N 48°23' W 004°29'0 0.0
2017-Nov-17 20:29N 48°23' W 004°29'0 0.0
2017-Nov-17 19:59N 48°23' W 004°29'0 0.0
2017-Nov-17 19:29N 48°23' W 004°29'0 0.0
2017-Nov-17 19:00N 48°23' W 004°29'4 7.7
2017-Nov-17 18:30N 48°21' W 004°34'714.3
2017-Nov-17 18:00N 48°19' W 004°45'815.1
2017-Nov-17 17:31N 48°25' W 004°52'714.8
2017-Nov-17 17:01N 48°28' W 005°02'2 3.8
2017-Nov-17 16:30N 48°27' W 004°60'4 7.5
2017-Nov-17 16:01N 48°25' W 004°56'713.4
2017-Nov-17 15:31N 48°22' W 004°47'3 5.0
2017-Nov-17 15:01N 48°23' W 004°50'5 9.4
2017-Nov-17 14:29N 48°24' W 004°57'611.7
2017-Nov-17 14:00N 48°28' W 005°03'0 0.0
2017-Nov-17 13:29N 48°28' W 005°03'0 0.0
2017-Nov-17 13:00N 48°28' W 005°03'0 0.0
2017-Nov-17 12:30N 48°28' W 005°03'0 0.0
2017-Nov-17 12:00N 48°28' W 005°03'0 0.0
2017-Nov-17 11:30N 48°28' W 005°03'0 0.0
2017-Nov-17 10:59N 48°28' W 005°03'0 0.0
2017-Nov-17 10:30N 48°28' W 005°03'2 4.7
2017-Nov-17 09:59N 48°27' W 004°60'4 8.5
2017-Nov-17 09:30N 48°24' W 004°55'612.7
2017-Nov-17 09:00N 48°22' W 004°47'3 6.0
2017-Nov-17 08:31N 48°24' W 004°50'5 9.1
2017-Nov-17 07:59N 48°24' W 004°57'611.6
2017-Nov-17 07:30N 48°28' W 005°03'0 0.0
2017-Nov-17 07:00N 48°28' W 005°03'0 0.0
2017-Nov-17 06:30N 48°28' W 005°03'0 0.0
2017-Nov-17 06:00N 48°28' W 005°03'0 0.0
2017-Nov-17 05:30N 48°28' W 005°03'0 0.0
2017-Nov-17 05:00N 48°28' W 005°03'0 0.0
2017-Nov-17 04:30N 48°28' W 005°03'0 0.0
2017-Nov-17 03:57N 48°28' W 005°03'0 0.0
2017-Nov-17 03:30N 48°28' W 005°03'0 0.0
2017-Nov-17 03:00N 48°28' W 005°03'0 0.0
2017-Nov-17 02:30N 48°28' W 005°03'0 0.0
2017-Nov-17 02:00N 48°28' W 005°03'0 0.0
2017-Nov-17 01:30N 48°28' W 005°03'0 0.0
2017-Nov-17 01:00N 48°28' W 005°03'0 0.0
2017-Nov-17 00:30N 48°28' W 005°03'0 0.0
2017-Nov-17 00:00N 48°28' W 005°03'0 0.0
2017-Nov-16 23:30N 48°28' W 005°03'0 0.0
2017-Nov-16 23:00N 48°28' W 005°03'0 0.0
2017-Nov-16 22:30N 48°28' W 005°03'0 0.0
2017-Nov-16 22:00N 48°28' W 005°03'0 0.0
2017-Nov-16 21:28N 48°28' W 005°03'0 0.0
2017-Nov-16 21:00N 48°28' W 005°03'0 0.0
2017-Nov-16 20:30N 48°28' W 005°03'0 0.0
2017-Nov-16 20:00N 48°28' W 005°03'0 0.0
2017-Nov-16 19:30N 48°28' W 005°03'0 0.0
2017-Nov-16 19:00N 48°28' W 005°03'0 0.0
2017-Nov-16 18:31N 48°28' W 005°03'0 0.0
2017-Nov-16 18:01N 48°28' W 005°03'5 9.6
2017-Nov-16 17:30N 48°27' W 004°56'714.5
2017-Nov-16 17:00N 48°22' W 004°48'2 3.1
2017-Nov-16 16:30N 48°23' W 004°50'510.2
2017-Nov-16 16:01N 48°24' W 004°57'611.2
2017-Nov-16 15:31N 48°28' W 005°03'0 0.0
2017-Nov-16 15:00N 48°28' W 005°03'0 0.0
2017-Nov-16 14:30N 48°28' W 005°03'0 0.0
2017-Nov-16 14:00N 48°28' W 005°03'0 0.0
2017-Nov-16 13:30N 48°28' W 005°03'0 0.0
2017-Nov-16 13:01N 48°28' W 005°03'0 0.0
2017-Nov-16 12:30N 48°28' W 005°03'0 0.0
2017-Nov-16 12:00N 48°28' W 005°03'0 0.0
2017-Nov-16 11:30N 48°28' W 005°03'0 0.0
2017-Nov-16 11:00N 48°28' W 005°03'0 0.0
2017-Nov-16 10:30N 48°28' W 005°03'0 0.0
2017-Nov-16 10:00N 48°28' W 005°03'5 9.7
2017-Nov-16 09:27N 48°24' W 004°58'512.2
2017-Nov-16 09:00N 48°23' W 004°49'2 4.1
2017-Nov-16 08:25N 48°22' W 004°47'4 9.4
2017-Nov-16 08:00N 48°20' W 004°42'815.8
2017-Nov-16 07:31N 48°22' W 004°30'1 2.7
2017-Nov-16 07:01N 48°23' W 004°29'0 0.0
2017-Nov-16 06:25N 48°23' W 004°29'0 0.0
2017-Nov-16 05:58N 48°23' W 004°29'0 0.0
2017-Nov-16 05:26N 48°23' W 004°29'0 0.0
2017-Nov-16 04:59N 48°23' W 004°29'0 0.0
2017-Nov-16 04:28N 48°23' W 004°29'0 0.0
2017-Nov-16 04:00N 48°23' W 004°29'0 0.0
2017-Nov-16 03:27N 48°23' W 004°29'0 0.0
2017-Nov-16 03:00N 48°23' W 004°29'0 0.0
2017-Nov-16 02:28N 48°23' W 004°29'0 0.0
2017-Nov-16 02:00N 48°23' W 004°29'0 0.0
2017-Nov-16 01:28N 48°23' W 004°29'0 0.0
2017-Nov-16 00:59N 48°23' W 004°29'0 0.0
2017-Nov-16 00:29N 48°23' W 004°29'0 0.0
2017-Nov-16 00:00N 48°23' W 004°29'0 0.0
2017-Nov-15 23:29N 48°23' W 004°29'0 0.0
2017-Nov-15 23:00N 48°23' W 004°29'0 0.0
2017-Nov-15 22:29N 48°23' W 004°29'0 0.0
2017-Nov-15 21:58N 48°23' W 004°29'0 0.0
2017-Nov-15 21:28N 48°23' W 004°29'0 0.0
2017-Nov-15 21:00N 48°23' W 004°29'0 0.0
2017-Nov-15 20:30N 48°23' W 004°29'0 0.0
2017-Nov-15 19:58N 48°23' W 004°29'0 0.0
2017-Nov-15 19:30N 48°23' W 004°29'0 0.0
2017-Nov-15 19:00N 48°23' W 004°29'0 0.0
2017-Nov-15 18:29N 48°23' W 004°29'0 0.0
2017-Nov-15 18:00N 48°23' W 004°29'0 0.0
2017-Nov-15 17:29N 48°23' W 004°29'0 0.0
2017-Nov-15 17:01N 48°23' W 004°29'0 0.0
2017-Nov-15 16:30N 48°23' W 004°29'0 0.0
2017-Nov-15 16:00N 48°23' W 004°29'0 0.0
2017-Nov-15 15:30N 48°23' W 004°29'0 0.0
2017-Nov-15 14:58N 48°23' W 004°29'0 0.0
2017-Nov-15 14:28N 48°23' W 004°29'0 0.0
2017-Nov-15 13:58N 48°23' W 004°29'0 0.0
2017-Nov-15 13:29N 48°23' W 004°29'0 0.0
2017-Nov-15 13:00N 48°23' W 004°29'0 0.0
2017-Nov-15 12:29N 48°23' W 004°29'0 0.0
2017-Nov-15 11:58N 48°23' W 004°29'0 0.0
2017-Nov-15 11:30N 48°23' W 004°29'0 0.0
2017-Nov-15 11:00N 48°23' W 004°29'0 0.0
2017-Nov-15 10:24N 48°23' W 004°29'0 0.0
2017-Nov-15 09:59N 48°23' W 004°29'0 0.0
2017-Nov-15 09:26N 48°23' W 004°29'0 0.0
2017-Nov-15 09:00N 48°23' W 004°29'0 0.0
2017-Nov-15 08:30N 48°23' W 004°29'0 0.0
2017-Nov-15 07:58N 48°23' W 004°29'0 0.0
2017-Nov-15 07:28N 48°23' W 004°29'0 0.0
2017-Nov-15 06:58N 48°23' W 004°29'0 0.0
2017-Nov-15 06:25N 48°23' W 004°29'0 0.0
2017-Nov-15 06:00N 48°23' W 004°29'0 0.0
2017-Nov-15 05:27N 48°23' W 004°29'0 0.0
2017-Nov-15 04:58N 48°23' W 004°29'0 0.0
2017-Nov-15 04:29N 48°23' W 004°29'0 0.0
2017-Nov-15 04:00N 48°23' W 004°29'0 0.0
2017-Nov-15 03:30N 48°23' W 004°29'0 0.0
2017-Nov-15 02:58N 48°23' W 004°29'0 0.0
2017-Nov-15 02:26N 48°23' W 004°29'0 0.0
2017-Nov-15 01:59N 48°23' W 004°29'0 0.0
2017-Nov-15 01:27N 48°23' W 004°29'0 0.0
2017-Nov-15 00:55N 48°23' W 004°29'0 0.0
2017-Nov-15 00:30N 48°23' W 004°29'0 0.0
2017-Nov-15 00:00N 48°23' W 004°29'0 0.0
2017-Nov-14 23:30N 48°23' W 004°29'0 0.0
2017-Nov-14 23:00N 48°23' W 004°29'0 0.0
2017-Nov-14 22:25N 48°23' W 004°29'0 0.0
2017-Nov-14 21:58N 48°23' W 004°29'0 0.0
2017-Nov-14 21:26N 48°23' W 004°29'0 0.0
2017-Nov-14 20:59N 48°23' W 004°29'0 0.0
2017-Nov-14 20:30N 48°23' W 004°29'0 0.0
2017-Nov-14 19:53N 48°23' W 004°29'0 0.0
2017-Nov-14 19:29N 48°23' W 004°29'0 0.0
2017-Nov-14 18:58N 48°23' W 004°29'0 0.0
2017-Nov-14 18:27N 48°23' W 004°29'0 0.0
2017-Nov-14 18:00N 48°23' W 004°29'5 9.8
2017-Nov-14 17:31N 48°20' W 004°35'714.5
2017-Nov-14 17:01N 48°19' W 004°46'5 9.5
2017-Nov-14 16:30N 48°23' W 004°50'5 9.3
2017-Nov-14 15:58N 48°24' W 004°57'611.9
2017-Nov-14 15:30N 48°28' W 005°03'0 0.0
2017-Nov-14 15:00N 48°28' W 005°03'0 0.0
2017-Nov-14 14:27N 48°28' W 005°03'0 0.0
2017-Nov-14 13:52N 48°28' W 005°03'0 0.0
2017-Nov-14 13:29N 48°28' W 005°03'0 0.0
2017-Nov-14 13:00N 48°28' W 005°03'0 0.0
2017-Nov-14 12:30N 48°28' W 005°03'0 0.0
2017-Nov-14 11:59N 48°28' W 005°03'0 0.0
2017-Nov-14 11:30N 48°28' W 005°03'0 0.0
2017-Nov-14 11:00N 48°28' W 005°03'0 0.0
2017-Nov-14 10:24N 48°28' W 005°03'1 2.1
2017-Nov-14 09:56N 48°28' W 005°02'511.6
2017-Nov-14 09:30N 48°24' W 004°57'5 9.7
2017-Nov-14 09:00N 48°24' W 004°50'3 5.1
2017-Nov-14 08:27N 48°22' W 004°47'511.2
2017-Nov-14 08:00N 48°20' W 004°40'714.6
2017-Nov-14 07:30N 48°22' W 004°30'1 2.1
2017-Nov-14 07:00N 48°23' W 004°29'0 0.0
2017-Nov-14 06:31N 48°23' W 004°29'0 0.0
2017-Nov-14 06:01N 48°23' W 004°29'0 0.0
2017-Nov-14 05:31N 48°23' W 004°29'0 0.0
2017-Nov-14 05:01N 48°23' W 004°29'0 0.0
2017-Nov-14 04:30N 48°23' W 004°29'0 0.0
2017-Nov-14 03:59N 48°23' W 004°29'0 0.0
2017-Nov-14 03:29N 48°23' W 004°29'0 0.0
2017-Nov-14 02:55N 48°23' W 004°29'0 0.0
2017-Nov-14 02:29N 48°23' W 004°29'0 0.0
2017-Nov-14 01:59N 48°23' W 004°29'0 0.0
2017-Nov-14 01:28N 48°23' W 004°29'0 0.0
2017-Nov-14 00:59N 48°23' W 004°29'0 0.0
2017-Nov-14 00:29N 48°23' W 004°29'0 0.0
2017-Nov-13 23:59N 48°23' W 004°29'0 0.0
2017-Nov-13 23:30N 48°23' W 004°29'0 0.0
2017-Nov-13 22:58N 48°23' W 004°29'0 0.0
2017-Nov-13 22:23N 48°23' W 004°29'0 0.0
2017-Nov-13 21:59N 48°23' W 004°29'0 0.0
2017-Nov-13 02:00N 48°23' W 004°29'0 0.0
2017-Nov-13 01:30N 48°23' W 004°29'0 0.0
2017-Nov-13 01:00N 48°23' W 004°29'0 0.0
2017-Nov-13 00:29N 48°23' W 004°29'0 0.0
2017-Nov-13 00:00N 48°23' W 004°29'0 0.0
2017-Nov-12 23:28N 48°23' W 004°29'0 0.0
2017-Nov-12 22:59N 48°23' W 004°29'0 0.0
2017-Nov-12 22:28N 48°23' W 004°29'0 0.0
2017-Nov-12 21:59N 48°23' W 004°29'0 0.0
2017-Nov-12 21:28N 48°23' W 004°29'0 0.0
2017-Nov-12 20:58N 48°23' W 004°29'0 0.0
2017-Nov-12 20:29N 48°23' W 004°29'0 0.0
2017-Nov-12 19:55N 48°23' W 004°29'0 0.0
2017-Nov-12 19:28N 48°23' W 004°29'0 0.0
2017-Nov-12 19:00N 48°23' W 004°29'0 0.0
2017-Nov-12 18:25N 48°23' W 004°29'1 1.3
2017-Nov-12 17:59N 48°22' W 004°29'714.7
2017-Nov-12 17:30N 48°20' W 004°39'5 9.8
2017-Nov-12 16:57N 48°22' W 004°47'4 7.8
2017-Nov-12 16:30N 48°24' W 004°51'4 8.5
2017-Nov-12 15:59N 48°24' W 004°57'611.7
2017-Nov-12 15:31N 48°28' W 005°03'2 2.9
2017-Nov-12 14:58N 48°28' W 005°01'4 9.0
2017-Nov-12 14:29N 48°24' W 004°57'612.1
2017-Nov-12 14:00N 48°23' W 004°49'2 3.2
2017-Nov-12 13:30N 48°22' W 004°47'0 0.0
2017-Nov-12 12:55N 48°22' W 004°47'0 0.0
2017-Nov-12 12:30N 48°22' W 004°47'0 0.0
2017-Nov-12 12:00N 48°22' W 004°47'2 4.7
2017-Nov-12 11:30N 48°23' W 004°50'510.4
2017-Nov-12 11:00N 48°24' W 004°57'611.2
2017-Nov-12 10:30N 48°28' W 005°03'0 0.1
2017-Nov-12 09:58N 48°28' W 005°03'612.1
2017-Nov-12 09:31N 48°24' W 004°57'5 9.6
2017-Nov-12 09:01N 48°24' W 004°50'3 5.8
2017-Nov-12 08:29N 48°22' W 004°47'5 9.9
2017-Nov-12 08:01N 48°20' W 004°40'714.1
2017-Nov-12 07:31N 48°22' W 004°30'1 2.3
2017-Nov-12 06:56N 48°23' W 004°29'0 0.0
2017-Nov-12 06:29N 48°23' W 004°29'0 0.0
2017-Nov-12 05:59N 48°23' W 004°29'0 0.0
2017-Nov-12 05:30N 48°23' W 004°29'0 0.0
2017-Nov-12 04:58N 48°23' W 004°29'0 0.0
2017-Nov-12 04:29N 48°23' W 004°29'0 0.0
2017-Nov-12 03:59N 48°23' W 004°29'0 0.0
2017-Nov-12 03:31N 48°23' W 004°29'0 0.0
2017-Nov-12 03:00N 48°23' W 004°29'0 0.0
2017-Nov-12 02:30N 48°23' W 004°29'0 0.0
2017-Nov-12 01:57N 48°23' W 004°29'0 0.0
2017-Nov-12 01:29N 48°23' W 004°29'0 0.0
2017-Nov-12 00:58N 48°23' W 004°29'0 0.0
2017-Nov-12 00:29N 48°23' W 004°29'0 0.0
2017-Nov-12 00:00N 48°23' W 004°29'0 0.0
2017-Nov-11 23:30N 48°23' W 004°29'0 0.0
2017-Nov-11 22:59N 48°23' W 004°29'0 0.0
2017-Nov-11 22:29N 48°23' W 004°29'0 0.0
2017-Nov-11 22:00N 48°23' W 004°29'0 0.0
2017-Nov-11 21:29N 48°23' W 004°29'0 0.0
2017-Nov-11 20:59N 48°23' W 004°29'0 0.0
2017-Nov-11 20:29N 48°23' W 004°29'0 0.0
2017-Nov-11 20:00N 48°23' W 004°29'0 0.0
2017-Nov-11 19:30N 48°23' W 004°29'0 0.0
2017-Nov-11 18:58N 48°23' W 004°29'0 0.0
2017-Nov-11 18:24N 48°23' W 004°29'0 0.0
2017-Nov-11 17:58N 48°23' W 004°29'612.6
2017-Nov-11 17:30N 48°20' W 004°37'712.9
2017-Nov-11 16:58N 48°21' W 004°47'3 6.8
2017-Nov-11 16:30N 48°23' W 004°50'5 9.4
2017-Nov-11 15:59N 48°24' W 004°57'611.4
2017-Nov-11 15:30N 48°28' W 005°03'0 0.0
2017-Nov-11 14:59N 48°28' W 005°03'0 0.0
2017-Nov-11 14:30N 48°28' W 005°03'0 0.0
2017-Nov-11 14:00N 48°28' W 005°03'0 0.0
2017-Nov-11 13:30N 48°28' W 005°03'0 0.0
2017-Nov-11 12:59N 48°28' W 005°03'0 0.0
2017-Nov-11 12:30N 48°28' W 005°03'0 0.0
2017-Nov-11 12:01N 48°28' W 005°03'0 0.0
2017-Nov-11 11:29N 48°28' W 005°03'0 0.0
2017-Nov-11 11:00N 48°28' W 005°03'0 0.0
2017-Nov-11 10:31N 48°28' W 005°03'0 0.7
2017-Nov-11 10:00N 48°28' W 005°03'510.6
2017-Nov-11 09:30N 48°24' W 004°57'511.0
2017-Nov-11 09:00N 48°23' W 004°49'2 4.7
2017-Nov-11 08:31N 48°22' W 004°47'4 8.6
2017-Nov-11 08:01N 48°20' W 004°41'714.4
2017-Nov-11 07:30N 48°22' W 004°30'1 2.5
2017-Nov-11 06:58N 48°23' W 004°29'0 0.0
2017-Nov-11 06:28N 48°23' W 004°29'0 0.0
2017-Nov-11 05:58N 48°23' W 004°29'0 0.0
2017-Nov-11 05:29N 48°23' W 004°29'0 0.0
2017-Nov-11 04:54N 48°23' W 004°29'0 0.0
2017-Nov-11 04:29N 48°23' W 004°29'0 0.0
2017-Nov-11 03:59N 48°23' W 004°29'0 0.0
2017-Nov-11 03:29N 48°23' W 004°29'0 0.0
2017-Nov-11 02:58N 48°23' W 004°29'0 0.0
2017-Nov-11 02:28N 48°23' W 004°29'0 0.0
2017-Nov-11 02:00N 48°23' W 004°29'0 0.0
2017-Nov-11 01:23N 48°23' W 004°29'0 0.0
2017-Nov-11 00:58N 48°23' W 004°29'0 0.0
2017-Nov-11 00:30N 48°23' W 004°29'0 0.0
2017-Nov-11 00:00N 48°23' W 004°29'0 0.0
2017-Nov-10 23:27N 48°23' W 004°29'0 0.0
2017-Nov-10 23:00N 48°23' W 004°29'0 0.0
2017-Nov-10 22:29N 48°23' W 004°29'0 0.0
2017-Nov-10 21:59N 48°23' W 004°29'0 0.0
2017-Nov-10 21:31N 48°23' W 004°29'0 0.0
2017-Nov-10 20:58N 48°23' W 004°29'0 0.0
2017-Nov-10 20:28N 48°23' W 004°29'0 0.0
2017-Nov-10 19:56N 48°23' W 004°29'0 0.0
2017-Nov-10 19:30N 48°23' W 004°29'0 0.0
2017-Nov-10 19:00N 48°23' W 004°29'612.5
2017-Nov-10 18:31N 48°20' W 004°37'713.6
2017-Nov-10 18:00N 48°21' W 004°48'713.7
2017-Nov-10 17:30N 48°26' W 004°54'713.3
2017-Nov-10 17:00N 48°28' W 005°03'4 9.0
2017-Nov-10 16:30N 48°26' W 004°57'3 6.0
2017-Nov-10 16:01N 48°24' W 004°54'510.5
2017-Nov-10 15:30N 48°22' W 004°47'3 6.3
2017-Nov-10 15:01N 48°24' W 004°50'5 9.1
2017-Nov-10 14:30N 48°24' W 004°57'611.2
2017-Nov-10 14:00N 48°28' W 005°03'0 0.0
2017-Nov-10 13:30N 48°28' W 005°03'0 0.0
2017-Nov-10 13:00N 48°28' W 005°03'0 0.0
2017-Nov-10 12:30N 48°28' W 005°03'0 0.0
2017-Nov-10 12:01N 48°28' W 005°03'0 0.0
2017-Nov-10 11:30N 48°28' W 005°03'0 0.0
2017-Nov-10 11:00N 48°28' W 005°03'0 0.0
2017-Nov-10 10:30N 48°28' W 005°03'3 5.6
2017-Nov-10 10:00N 48°27' W 004°59'3 5.9
2017-Nov-10 09:31N 48°25' W 004°56'712.9
2017-Nov-10 09:00N 48°22' W 004°48'1 2.5
2017-Nov-10 08:31N 48°22' W 004°49'611.1
2017-Nov-10 08:00N 48°24' W 004°57'611.2
2017-Nov-10 07:30N 48°28' W 005°03'2 4.7
2017-Nov-10 07:00N 48°28' W 004°60'714.5
2017-Nov-10 06:30N 48°24' W 004°51'612.9
2017-Nov-10 06:00N 48°20' W 004°44'713.7
2017-Nov-10 05:31N 48°21' W 004°34'4 7.0
2017-Nov-10 05:00N 48°23' W 004°29'0 0.0
2017-Nov-10 04:30N 48°23' W 004°29'0 0.0
2017-Nov-10 04:00N 48°23' W 004°29'0 0.0
2017-Nov-10 03:29N 48°23' W 004°29'0 0.0
2017-Nov-10 03:00N 48°23' W 004°29'0 0.0
2017-Nov-10 02:29N 48°23' W 004°29'0 0.0
2017-Nov-10 01:54N 48°23' W 004°29'0 0.0
2017-Nov-10 01:30N 48°23' W 004°29'0 0.0
2017-Nov-10 01:00N 48°23' W 004°29'  
Track history (hours):
 
Tides and Currents Weather Stations Pressure Air Temp Water Temp Dewpoint Dewpoint Depression Visibility Wind Speed Wind Dir Waves Ship Positions

Fromveur II

Last reported at 2017-Nov-20 00:30 UTC. Time now 2017-Nov-20 02:11 UTC.
Position N 48°23' W 004°29'.

Length 45 m; draft 2.8 m.

Type: Ship. MMSI: 228017700.

Date/timePositionNaut miles runAvg speedWind from/ knotsBaromVisibWave heightAir tempDewpointWater temp
2017-Nov-20 00:30N 48°23' W 004°29'0 0.0
2017-Nov-19 23:55N 48°23' W 004°29'0 0.0
2017-Nov-19 23:30N 48°23' W 004°29'0 0.0
2017-Nov-19 23:00N 48°23' W 004°29'0 0.0
2017-Nov-19 22:28N 48°23' W 004°29'0 0.0
2017-Nov-19 21:56N 48°23' W 004°29'0 0.0
2017-Nov-19 21:23N 48°23' W 004°29'0 0.0
2017-Nov-19 20:57N 48°23' W 004°29'0 0.0
2017-Nov-19 20:30N 48°23' W 004°29'0 0.0
2017-Nov-19 19:54N 48°23' W 004°29'0 0.0
2017-Nov-19 19:30N 48°23' W 004°29'0 0.0
2017-Nov-19 19:00N 48°23' W 004°29'0 0.0
2017-Nov-19 18:29N 48°23' W 004°29'0 0.6
2017-Nov-19 18:00N 48°23' W 004°29'713.1
2017-Nov-19 17:30N 48°20' W 004°38'612.4
2017-Nov-19 17:00N 48°21' W 004°47'3 5.9
2017-Nov-19 16:31N 48°23' W 004°51'4 8.7
2017-Nov-19 16:00N 48°24' W 004°57'610.8
2017-Nov-19 15:29N 48°28' W 005°03'0 0.0
2017-Nov-19 14:59N 48°28' W 005°03'611.7
2017-Nov-19 14:30N 48°24' W 004°57'5 9.4
2017-Nov-19 14:01N 48°23' W 004°51'3 5.5
2017-Nov-19 13:30N 48°22' W 004°47'0 0.0
2017-Nov-19 13:00N 48°22' W 004°47'0 0.0
2017-Nov-19 12:25N 48°22' W 004°47'0 0.0
2017-Nov-19 11:49N 48°22' W 004°47'3 8.3
2017-Nov-19 11:30N 48°23' W 004°50'510.8
2017-Nov-19 11:00N 48°24' W 004°58'510.0
2017-Nov-19 10:28N 48°28' W 005°03'0 0.0
2017-Nov-19 10:00N 48°28' W 005°03'510.2
2017-Nov-19 09:29N 48°24' W 004°58'611.7
2017-Nov-19 09:01N 48°23' W 004°50'2 4.4
2017-Nov-19 08:30N 48°22' W 004°47'4 9.1
2017-Nov-19 08:00N 48°20' W 004°41'715.0
2017-Nov-19 07:30N 48°22' W 004°30'1 2.3
2017-Nov-19 06:57N 48°23' W 004°29'0 0.0
2017-Nov-19 06:30N 48°23' W 004°29'0 0.0
2017-Nov-19 06:00N 48°23' W 004°29'0 0.0
2017-Nov-19 05:28N 48°23' W 004°29'0 0.0
2017-Nov-19 04:58N 48°23' W 004°29'0 0.0
2017-Nov-19 04:28N 48°23' W 004°29'0 0.0
2017-Nov-19 03:59N 48°23' W 004°29'0 0.0
2017-Nov-19 03:29N 48°23' W 004°29'0 0.0
2017-Nov-19 02:57N 48°23' W 004°29'0 0.0
2017-Nov-19 02:28N 48°23' W 004°29'0 0.0
2017-Nov-19 01:58N 48°23' W 004°29'0 0.0
2017-Nov-19 01:29N 48°23' W 004°29'0 0.0
2017-Nov-19 01:00N 48°23' W 004°29'0 0.0
2017-Nov-19 00:29N 48°23' W 004°29'0 0.0
2017-Nov-18 23:59N 48°23' W 004°29'0 0.0
2017-Nov-18 23:30N 48°23' W 004°29'0 0.0
2017-Nov-18 22:58N 48°23' W 004°29'0 0.0
2017-Nov-18 22:30N 48°23' W 004°29'0 0.0
2017-Nov-18 22:00N 48°23' W 004°29'0 0.0
2017-Nov-18 21:26N 48°23' W 004°29'0 0.0
2017-Nov-18 20:55N 48°23' W 004°29'0 0.0
2017-Nov-18 20:23N 48°23' W 004°29'0 0.0
2017-Nov-18 19:58N 48°23' W 004°29'0 0.0
2017-Nov-18 19:30N 48°23' W 004°29'0 0.0
2017-Nov-18 18:57N 48°23' W 004°29'0 0.0
2017-Nov-18 18:30N 48°23' W 004°29'0 0.0
2017-Nov-18 18:00N 48°23' W 004°29'611.4
2017-Nov-18 17:30N 48°20' W 004°37'714.1
2017-Nov-18 17:00N 48°20' W 004°47'4 8.2
2017-Nov-18 16:30N 48°24' W 004°50'5 9.3
2017-Nov-18 15:59N 48°24' W 004°57'611.6
2017-Nov-18 15:30N 48°28' W 005°03'0 0.1
2017-Nov-18 14:50N 48°28' W 005°03'3 9.8
2017-Nov-18 14:30N 48°27' W 004°59'3 6.5
2017-Nov-18 14:00N 48°24' W 004°56'612.5
2017-Nov-18 13:29N 48°22' W 004°47'0 0.0
2017-Nov-18 12:59N 48°22' W 004°47'0 0.0
2017-Nov-18 12:29N 48°22' W 004°47'0 0.0
2017-Nov-18 12:00N 48°22' W 004°47'510.8
2017-Nov-18 11:30N 48°24' W 004°54'4 8.8
2017-Nov-18 11:00N 48°27' W 004°59'3 4.7
2017-Nov-18 10:22N 48°28' W 005°03'2 3.6
2017-Nov-18 09:54N 48°28' W 005°01'4 9.9
2017-Nov-18 09:29N 48°24' W 004°58'611.6
2017-Nov-18 09:00N 48°23' W 004°49'2 4.4
2017-Nov-18 08:30N 48°22' W 004°47'4 8.6
2017-Nov-18 08:01N 48°20' W 004°41'815.1
2017-Nov-18 07:31N 48°22' W 004°30'1 2.4
2017-Nov-18 06:58N 48°23' W 004°29'0 0.0
2017-Nov-18 06:29N 48°23' W 004°29'0 0.0
2017-Nov-18 05:58N 48°23' W 004°29'0 0.0
2017-Nov-18 05:30N 48°23' W 004°29'0 0.0
2017-Nov-18 04:57N 48°23' W 004°29'0 0.0
2017-Nov-18 04:30N 48°23' W 004°29'0 0.0
2017-Nov-18 04:00N 48°23' W 004°29'0 0.0
2017-Nov-18 03:30N 48°23' W 004°29'0 0.0
2017-Nov-18 03:00N 48°23' W 004°29'0 0.0
2017-Nov-18 02:29N 48°23' W 004°29'0 0.0
2017-Nov-18 01:59N 48°23' W 004°29'0 0.0
2017-Nov-18 01:30N 48°23' W 004°29'0 0.0
2017-Nov-18 00:59N 48°23' W 004°29'0 0.0
2017-Nov-18 00:29N 48°23' W 004°29'0 0.0
2017-Nov-18 00:00N 48°23' W 004°29'0 0.0
2017-Nov-17 23:29N 48°23' W 004°29'0 0.0
2017-Nov-17 22:59N 48°23' W 004°29'0 0.0
2017-Nov-17 22:29N 48°23' W 004°29'0 0.0
2017-Nov-17 21:58N 48°23' W 004°29'0 0.0
2017-Nov-17 21:29N 48°23' W 004°29'0 0.0
2017-Nov-17 20:53N 48°23' W 004°29'0 0.0
2017-Nov-17 20:29N 48°23' W 004°29'0 0.0
2017-Nov-17 19:59N 48°23' W 004°29'0 0.0
2017-Nov-17 19:29N 48°23' W 004°29'0 0.0
2017-Nov-17 19:00N 48°23' W 004°29'4 7.7
2017-Nov-17 18:30N 48°21' W 004°34'714.3
2017-Nov-17 18:00N 48°19' W 004°45'815.1
2017-Nov-17 17:31N 48°25' W 004°52'714.8
2017-Nov-17 17:01N 48°28' W 005°02'2 3.8
2017-Nov-17 16:30N 48°27' W 004°60'4 7.5
2017-Nov-17 16:01N 48°25' W 004°56'713.4
2017-Nov-17 15:31N 48°22' W 004°47'3 5.0
2017-Nov-17 15:01N 48°23' W 004°50'5 9.4
2017-Nov-17 14:29N 48°24' W 004°57'611.7
2017-Nov-17 14:00N 48°28' W 005°03'0 0.0
2017-Nov-17 13:29N 48°28' W 005°03'0 0.0
2017-Nov-17 13:00N 48°28' W 005°03'0 0.0
2017-Nov-17 12:30N 48°28' W 005°03'0 0.0
2017-Nov-17 12:00N 48°28' W 005°03'0 0.0
2017-Nov-17 11:30N 48°28' W 005°03'0 0.0
2017-Nov-17 10:59N 48°28' W 005°03'0 0.0
2017-Nov-17 10:30N 48°28' W 005°03'2 4.7
2017-Nov-17 09:59N 48°27' W 004°60'4 8.5
2017-Nov-17 09:30N 48°24' W 004°55'612.7
2017-Nov-17 09:00N 48°22' W 004°47'3 6.0
2017-Nov-17 08:31N 48°24' W 004°50'5 9.1
2017-Nov-17 07:59N 48°24' W 004°57'611.6
2017-Nov-17 07:30N 48°28' W 005°03'0 0.0
2017-Nov-17 07:00N 48°28' W 005°03'0 0.0
2017-Nov-17 06:30N 48°28' W 005°03'0 0.0
2017-Nov-17 06:00N 48°28' W 005°03'0 0.0
2017-Nov-17 05:30N 48°28' W 005°03'0 0.0
2017-Nov-17 05:00N 48°28' W 005°03'0 0.0
2017-Nov-17 04:30N 48°28' W 005°03'0 0.0
2017-Nov-17 03:57N 48°28' W 005°03'0 0.0
2017-Nov-17 03:30N 48°28' W 005°03'0 0.0
2017-Nov-17 03:00N 48°28' W 005°03'0 0.0
2017-Nov-17 02:30N 48°28' W 005°03'0 0.0
2017-Nov-17 02:00N 48°28' W 005°03'0 0.0
2017-Nov-17 01:30N 48°28' W 005°03'0 0.0
2017-Nov-17 01:00N 48°28' W 005°03'0 0.0
2017-Nov-17 00:30N 48°28' W 005°03'0 0.0
2017-Nov-17 00:00N 48°28' W 005°03'0 0.0
2017-Nov-16 23:30N 48°28' W 005°03'0 0.0
2017-Nov-16 23:00N 48°28' W 005°03'0 0.0
2017-Nov-16 22:30N 48°28' W 005°03'0 0.0
2017-Nov-16 22:00N 48°28' W 005°03'0 0.0
2017-Nov-16 21:28N 48°28' W 005°03'0 0.0
2017-Nov-16 21:00N 48°28' W 005°03'0 0.0
2017-Nov-16 20:30N 48°28' W 005°03'0 0.0
2017-Nov-16 20:00N 48°28' W 005°03'0 0.0
2017-Nov-16 19:30N 48°28' W 005°03'0 0.0
2017-Nov-16 19:00N 48°28' W 005°03'0 0.0
2017-Nov-16 18:31N 48°28' W 005°03'0 0.0
2017-Nov-16 18:01N 48°28' W 005°03'5 9.6
2017-Nov-16 17:30N 48°27' W 004°56'714.5
2017-Nov-16 17:00N 48°22' W 004°48'2 3.1
2017-Nov-16 16:30N 48°23' W 004°50'510.2
2017-Nov-16 16:01N 48°24' W 004°57'611.2
2017-Nov-16 15:31N 48°28' W 005°03'0 0.0
2017-Nov-16 15:00N 48°28' W 005°03'0 0.0
2017-Nov-16 14:30N 48°28' W 005°03'0 0.0
2017-Nov-16 14:00N 48°28' W 005°03'0 0.0
2017-Nov-16 13:30N 48°28' W 005°03'0 0.0
2017-Nov-16 13:01N 48°28' W 005°03'0 0.0
2017-Nov-16 12:30N 48°28' W 005°03'0 0.0
2017-Nov-16 12:00N 48°28' W 005°03'0 0.0
2017-Nov-16 11:30N 48°28' W 005°03'0 0.0
2017-Nov-16 11:00N 48°28' W 005°03'0 0.0
2017-Nov-16 10:30N 48°28' W 005°03'0 0.0
2017-Nov-16 10:00N 48°28' W 005°03'5 9.7
2017-Nov-16 09:27N 48°24' W 004°58'512.2
2017-Nov-16 09:00N 48°23' W 004°49'2 4.1
2017-Nov-16 08:25N 48°22' W 004°47'4 9.4
2017-Nov-16 08:00N 48°20' W 004°42'815.8
2017-Nov-16 07:31N 48°22' W 004°30'1 2.7
2017-Nov-16 07:01N 48°23' W 004°29'0 0.0
2017-Nov-16 06:25N 48°23' W 004°29'0 0.0
2017-Nov-16 05:58N 48°23' W 004°29'0 0.0
2017-Nov-16 05:26N 48°23' W 004°29'0 0.0
2017-Nov-16 04:59N 48°23' W 004°29'0 0.0
2017-Nov-16 04:28N 48°23' W 004°29'0 0.0
2017-Nov-16 04:00N 48°23' W 004°29'0 0.0
2017-Nov-16 03:27N 48°23' W 004°29'0 0.0
2017-Nov-16 03:00N 48°23' W 004°29'0 0.0
2017-Nov-16 02:28N 48°23' W 004°29'0 0.0
2017-Nov-16 02:00N 48°23' W 004°29'0 0.0
2017-Nov-16 01:28N 48°23' W 004°29'0 0.0
2017-Nov-16 00:59N 48°23' W 004°29'0 0.0
2017-Nov-16 00:29N 48°23' W 004°29'0 0.0
2017-Nov-16 00:00N 48°23' W 004°29'0 0.0
2017-Nov-15 23:29N 48°23' W 004°29'0 0.0
2017-Nov-15 23:00N 48°23' W 004°29'0 0.0
2017-Nov-15 22:29N 48°23' W 004°29'0 0.0
2017-Nov-15 21:58N 48°23' W 004°29'0 0.0
2017-Nov-15 21:28N 48°23' W 004°29'0 0.0
2017-Nov-15 21:00N 48°23' W 004°29'0 0.0
2017-Nov-15 20:30N 48°23' W 004°29'0 0.0
2017-Nov-15 19:58N 48°23' W 004°29'0 0.0
2017-Nov-15 19:30N 48°23' W 004°29'0 0.0
2017-Nov-15 19:00N 48°23' W 004°29'0 0.0
2017-Nov-15 18:29N 48°23' W 004°29'0 0.0
2017-Nov-15 18:00N 48°23' W 004°29'0 0.0
2017-Nov-15 17:29N 48°23' W 004°29'0 0.0
2017-Nov-15 17:01N 48°23' W 004°29'0 0.0
2017-Nov-15 16:30N 48°23' W 004°29'0 0.0
2017-Nov-15 16:00N 48°23' W 004°29'0 0.0
2017-Nov-15 15:30N 48°23' W 004°29'0 0.0
2017-Nov-15 14:58N 48°23' W 004°29'0 0.0
2017-Nov-15 14:28N 48°23' W 004°29'0 0.0
2017-Nov-15 13:58N 48°23' W 004°29'0 0.0
2017-Nov-15 13:29N 48°23' W 004°29'0 0.0
2017-Nov-15 13:00N 48°23' W 004°29'0 0.0
2017-Nov-15 12:29N 48°23' W 004°29'0 0.0
2017-Nov-15 11:58N 48°23' W 004°29'0 0.0
2017-Nov-15 11:30N 48°23' W 004°29'0 0.0
2017-Nov-15 11:00N 48°23' W 004°29'0 0.0
2017-Nov-15 10:24N 48°23' W 004°29'0 0.0
2017-Nov-15 09:59N 48°23' W 004°29'0 0.0
2017-Nov-15 09:26N 48°23' W 004°29'0 0.0
2017-Nov-15 09:00N 48°23' W 004°29'0 0.0
2017-Nov-15 08:30N 48°23' W 004°29'0 0.0
2017-Nov-15 07:58N 48°23' W 004°29'0 0.0
2017-Nov-15 07:28N 48°23' W 004°29'0 0.0
2017-Nov-15 06:58N 48°23' W 004°29'0 0.0
2017-Nov-15 06:25N 48°23' W 004°29'0 0.0
2017-Nov-15 06:00N 48°23' W 004°29'0 0.0
2017-Nov-15 05:27N 48°23' W 004°29'0 0.0
2017-Nov-15 04:58N 48°23' W 004°29'0 0.0
2017-Nov-15 04:29N 48°23' W 004°29'0 0.0
2017-Nov-15 04:00N 48°23' W 004°29'0 0.0
2017-Nov-15 03:30N 48°23' W 004°29'0 0.0
2017-Nov-15 02:58N 48°23' W 004°29'0 0.0
2017-Nov-15 02:26N 48°23' W 004°29'0 0.0
2017-Nov-15 01:59N 48°23' W 004°29'0 0.0
2017-Nov-15 01:27N 48°23' W 004°29'0 0.0
2017-Nov-15 00:55N 48°23' W 004°29'0 0.0
2017-Nov-15 00:30N 48°23' W 004°29'0 0.0
2017-Nov-15 00:00N 48°23' W 004°29'0 0.0
2017-Nov-14 23:30N 48°23' W 004°29'0 0.0
2017-Nov-14 23:00N 48°23' W 004°29'0 0.0
2017-Nov-14 22:25N 48°23' W 004°29'0 0.0
2017-Nov-14 21:58N 48°23' W 004°29'0 0.0
2017-Nov-14 21:26N 48°23' W 004°29'0 0.0
2017-Nov-14 20:59N 48°23' W 004°29'0 0.0
2017-Nov-14 20:30N 48°23' W 004°29'0 0.0
2017-Nov-14 19:53N 48°23' W 004°29'0 0.0
2017-Nov-14 19:29N 48°23' W 004°29'0 0.0
2017-Nov-14 18:58N 48°23' W 004°29'0 0.0
2017-Nov-14 18:27N 48°23' W 004°29'0 0.0
2017-Nov-14 18:00N 48°23' W 004°29'5 9.8
2017-Nov-14 17:31N 48°20' W 004°35'714.5
2017-Nov-14 17:01N 48°19' W 004°46'5 9.5
2017-Nov-14 16:30N 48°23' W 004°50'5 9.3
2017-Nov-14 15:58N 48°24' W 004°57'611.9
2017-Nov-14 15:30N 48°28' W 005°03'0 0.0
2017-Nov-14 15:00N 48°28' W 005°03'0 0.0
2017-Nov-14 14:27N 48°28' W 005°03'0 0.0
2017-Nov-14 13:52N 48°28' W 005°03'0 0.0
2017-Nov-14 13:29N 48°28' W 005°03'0 0.0
2017-Nov-14 13:00N 48°28' W 005°03'0 0.0
2017-Nov-14 12:30N 48°28' W 005°03'0 0.0
2017-Nov-14 11:59N 48°28' W 005°03'0 0.0
2017-Nov-14 11:30N 48°28' W 005°03'0 0.0
2017-Nov-14 11:00N 48°28' W 005°03'0 0.0
2017-Nov-14 10:24N 48°28' W 005°03'1 2.1
2017-Nov-14 09:56N 48°28' W 005°02'511.6
2017-Nov-14 09:30N 48°24' W 004°57'5 9.7
2017-Nov-14 09:00N 48°24' W 004°50'3 5.1
2017-Nov-14 08:27N 48°22' W 004°47'511.2
2017-Nov-14 08:00N 48°20' W 004°40'714.6
2017-Nov-14 07:30N 48°22' W 004°30'1 2.1
2017-Nov-14 07:00N 48°23' W 004°29'0 0.0
2017-Nov-14 06:31N 48°23' W 004°29'0 0.0
2017-Nov-14 06:01N 48°23' W 004°29'0 0.0
2017-Nov-14 05:31N 48°23' W 004°29'0 0.0
2017-Nov-14 05:01N 48°23' W 004°29'0 0.0
2017-Nov-14 04:30N 48°23' W 004°29'0 0.0
2017-Nov-14 03:59N 48°23' W 004°29'0 0.0
2017-Nov-14 03:29N 48°23' W 004°29'0 0.0
2017-Nov-14 02:55N 48°23' W 004°29'0 0.0
2017-Nov-14 02:29N 48°23' W 004°29'0 0.0
2017-Nov-14 01:59N 48°23' W 004°29'0 0.0
2017-Nov-14 01:28N 48°23' W 004°29'0 0.0
2017-Nov-14 00:59N 48°23' W 004°29'0 0.0
2017-Nov-14 00:29N 48°23' W 004°29'0 0.0
2017-Nov-13 23:59N 48°23' W 004°29'0 0.0
2017-Nov-13 23:30N 48°23' W 004°29'0 0.0
2017-Nov-13 22:58N 48°23' W 004°29'0 0.0
2017-Nov-13 22:23N 48°23' W 004°29'0 0.0
2017-Nov-13 21:59N 48°23' W 004°29'0 0.0
2017-Nov-13 02:00N 48°23' W 004°29'0 0.0
2017-Nov-13 01:30N 48°23' W 004°29'0 0.0
2017-Nov-13 01:00N 48°23' W 004°29'0 0.0
2017-Nov-13 00:29N 48°23' W 004°29'0 0.0
2017-Nov-13 00:00N 48°23' W 004°29'0 0.0
2017-Nov-12 23:28N 48°23' W 004°29'0 0.0
2017-Nov-12 22:59N 48°23' W 004°29'0 0.0
2017-Nov-12 22:28N 48°23' W 004°29'0 0.0
2017-Nov-12 21:59N 48°23' W 004°29'0 0.0
2017-Nov-12 21:28N 48°23' W 004°29'0 0.0
2017-Nov-12 20:58N 48°23' W 004°29'0 0.0
2017-Nov-12 20:29N 48°23' W 004°29'0 0.0
2017-Nov-12 19:55N 48°23' W 004°29'0 0.0
2017-Nov-12 19:28N 48°23' W 004°29'0 0.0
2017-Nov-12 19:00N 48°23' W 004°29'0 0.0
2017-Nov-12 18:25N 48°23' W 004°29'1 1.3
2017-Nov-12 17:59N 48°22' W 004°29'714.7
2017-Nov-12 17:30N 48°20' W 004°39'5 9.8
2017-Nov-12 16:57N 48°22' W 004°47'4 7.8
2017-Nov-12 16:30N 48°24' W 004°51'4 8.5
2017-Nov-12 15:59N 48°24' W 004°57'611.7
2017-Nov-12 15:31N 48°28' W 005°03'2 2.9
2017-Nov-12 14:58N 48°28' W 005°01'4 9.0
2017-Nov-12 14:29N 48°24' W 004°57'612.1
2017-Nov-12 14:00N 48°23' W 004°49'2 3.2
2017-Nov-12 13:30N 48°22' W 004°47'0 0.0
2017-Nov-12 12:55N 48°22' W 004°47'0 0.0
2017-Nov-12 12:30N 48°22' W 004°47'0 0.0
2017-Nov-12 12:00N 48°22' W 004°47'2 4.7
2017-Nov-12 11:30N 48°23' W 004°50'510.4
2017-Nov-12 11:00N 48°24' W 004°57'611.2
2017-Nov-12 10:30N 48°28' W 005°03'0 0.1
2017-Nov-12 09:58N 48°28' W 005°03'612.1
2017-Nov-12 09:31N 48°24' W 004°57'5 9.6
2017-Nov-12 09:01N 48°24' W 004°50'3 5.8
2017-Nov-12 08:29N 48°22' W 004°47'5 9.9
2017-Nov-12 08:01N 48°20' W 004°40'714.1
2017-Nov-12 07:31N 48°22' W 004°30'1 2.3
2017-Nov-12 06:56N 48°23' W 004°29'0 0.0
2017-Nov-12 06:29N 48°23' W 004°29'0 0.0
2017-Nov-12 05:59N 48°23' W 004°29'0 0.0
2017-Nov-12 05:30N 48°23' W 004°29'0 0.0
2017-Nov-12 04:58N 48°23' W 004°29'0 0.0
2017-Nov-12 04:29N 48°23' W 004°29'0 0.0
2017-Nov-12 03:59N 48°23' W 004°29'0 0.0
2017-Nov-12 03:31N 48°23' W 004°29'0 0.0
2017-Nov-12 03:00N 48°23' W 004°29'0 0.0
2017-Nov-12 02:30N 48°23' W 004°29'0 0.0
2017-Nov-12 01:57N 48°23' W 004°29'0 0.0
2017-Nov-12 01:29N 48°23' W 004°29'0 0.0
2017-Nov-12 00:58N 48°23' W 004°29'0 0.0
2017-Nov-12 00:29N 48°23' W 004°29'0 0.0
2017-Nov-12 00:00N 48°23' W 004°29'0 0.0
2017-Nov-11 23:30N 48°23' W 004°29'0 0.0
2017-Nov-11 22:59N 48°23' W 004°29'0 0.0
2017-Nov-11 22:29N 48°23' W 004°29'0 0.0
2017-Nov-11 22:00N 48°23' W 004°29'0 0.0
2017-Nov-11 21:29N 48°23' W 004°29'0 0.0
2017-Nov-11 20:59N 48°23' W 004°29'0 0.0
2017-Nov-11 20:29N 48°23' W 004°29'0 0.0
2017-Nov-11 20:00N 48°23' W 004°29'0 0.0
2017-Nov-11 19:30N 48°23' W 004°29'0 0.0
2017-Nov-11 18:58N 48°23' W 004°29'0 0.0
2017-Nov-11 18:24N 48°23' W 004°29'0 0.0
2017-Nov-11 17:58N 48°23' W 004°29'612.6
2017-Nov-11 17:30N 48°20' W 004°37'712.9
2017-Nov-11 16:58N 48°21' W 004°47'3 6.8
2017-Nov-11 16:30N 48°23' W 004°50'5 9.4
2017-Nov-11 15:59N 48°24' W 004°57'611.4
2017-Nov-11 15:30N 48°28' W 005°03'0 0.0
2017-Nov-11 14:59N 48°28' W 005°03'0 0.0
2017-Nov-11 14:30N 48°28' W 005°03'0 0.0
2017-Nov-11 14:00N 48°28' W 005°03'0 0.0
2017-Nov-11 13:30N 48°28' W 005°03'0 0.0
2017-Nov-11 12:59N 48°28' W 005°03'0 0.0
2017-Nov-11 12:30N 48°28' W 005°03'0 0.0
2017-Nov-11 12:01N 48°28' W 005°03'0 0.0
2017-Nov-11 11:29N 48°28' W 005°03'0 0.0
2017-Nov-11 11:00N 48°28' W 005°03'0 0.0
2017-Nov-11 10:31N 48°28' W 005°03'0 0.7
2017-Nov-11 10:00N 48°28' W 005°03'510.6
2017-Nov-11 09:30N 48°24' W 004°57'511.0
2017-Nov-11 09:00N 48°23' W 004°49'2 4.7
2017-Nov-11 08:31N 48°22' W 004°47'4 8.6
2017-Nov-11 08:01N 48°20' W 004°41'714.4
2017-Nov-11 07:30N 48°22' W 004°30'1 2.5
2017-Nov-11 06:58N 48°23' W 004°29'0 0.0
2017-Nov-11 06:28N 48°23' W 004°29'0 0.0
2017-Nov-11 05:58N 48°23' W 004°29'0 0.0
2017-Nov-11 05:29N 48°23' W 004°29'0 0.0
2017-Nov-11 04:54N 48°23' W 004°29'0 0.0
2017-Nov-11 04:29N 48°23' W 004°29'0 0.0
2017-Nov-11 03:59N 48°23' W 004°29'0 0.0
2017-Nov-11 03:29N 48°23' W 004°29'0 0.0
2017-Nov-11 02:58N 48°23' W 004°29'0 0.0
2017-Nov-11 02:28N 48°23' W 004°29'0 0.0
2017-Nov-11 02:00N 48°23' W 004°29'0 0.0
2017-Nov-11 01:23N 48°23' W 004°29'0 0.0
2017-Nov-11 00:58N 48°23' W 004°29'0 0.0
2017-Nov-11 00:30N 48°23' W 004°29'0 0.0
2017-Nov-11 00:00N 48°23' W 004°29'0 0.0
2017-Nov-10 23:27N 48°23' W 004°29'0 0.0
2017-Nov-10 23:00N 48°23' W 004°29'0 0.0
2017-Nov-10 22:29N 48°23' W 004°29'0 0.0
2017-Nov-10 21:59N 48°23' W 004°29'0 0.0
2017-Nov-10 21:31N 48°23' W 004°29'0 0.0
2017-Nov-10 20:58N 48°23' W 004°29'0 0.0
2017-Nov-10 20:28N 48°23' W 004°29'0 0.0
2017-Nov-10 19:56N 48°23' W 004°29'0 0.0
2017-Nov-10 19:30N 48°23' W 004°29'0 0.0
2017-Nov-10 19:00N 48°23' W 004°29'612.5
2017-Nov-10 18:31N 48°20' W 004°37'713.6
2017-Nov-10 18:00N 48°21' W 004°48'713.7
2017-Nov-10 17:30N 48°26' W 004°54'713.3
2017-Nov-10 17:00N 48°28' W 005°03'4 9.0
2017-Nov-10 16:30N 48°26' W 004°57'3 6.0
2017-Nov-10 16:01N 48°24' W 004°54'510.5
2017-Nov-10 15:30N 48°22' W 004°47'3 6.3
2017-Nov-10 15:01N 48°24' W 004°50'5 9.1
2017-Nov-10 14:30N 48°24' W 004°57'611.2
2017-Nov-10 14:00N 48°28' W 005°03'0 0.0
2017-Nov-10 13:30N 48°28' W 005°03'0 0.0
2017-Nov-10 13:00N 48°28' W 005°03'0 0.0
2017-Nov-10 12:30N 48°28' W 005°03'0 0.0
2017-Nov-10 12:01N 48°28' W 005°03'0 0.0
2017-Nov-10 11:30N 48°28' W 005°03'0 0.0
2017-Nov-10 11:00N 48°28' W 005°03'0 0.0
2017-Nov-10 10:30N 48°28' W 005°03'3 5.6
2017-Nov-10 10:00N 48°27' W 004°59'3 5.9
2017-Nov-10 09:31N 48°25' W 004°56'712.9
2017-Nov-10 09:00N 48°22' W 004°48'1 2.5
2017-Nov-10 08:31N 48°22' W 004°49'611.1
2017-Nov-10 08:00N 48°24' W 004°57'611.2
2017-Nov-10 07:30N 48°28' W 005°03'2 4.7
2017-Nov-10 07:00N 48°28' W 004°60'714.5
2017-Nov-10 06:30N 48°24' W 004°51'612.9
2017-Nov-10 06:00N 48°20' W 004°44'713.7
2017-Nov-10 05:31N 48°21' W 004°34'4 7.0
2017-Nov-10 05:00N 48°23' W 004°29'0 0.0
2017-Nov-10 04:30N 48°23' W 004°29'0 0.0
2017-Nov-10 04:00N 48°23' W 004°29'0 0.0
2017-Nov-10 03:29N 48°23' W 004°29'0 0.0
2017-Nov-10 03:00N 48°23' W 004°29'0 0.0
2017-Nov-10 02:29N 48°23' W 004°29'0 0.0
2017-Nov-10 01:54N 48°23' W 004°29'0 0.0
2017-Nov-10 01:30N 48°23' W 004°29'0 0.0
2017-Nov-10 01:00N 48°23' W 004°29'  

Dump ship's entire track history